createdAt,value
2022-09-28T00:02:00.694Z,99679.91
2022-09-28T00:07:47.797Z,99684.03
2022-09-28T00:13:35.314Z,99689.19
2022-09-28T00:19:25.765Z,99684.56
2022-09-28T00:25:14.947Z,99684.50
2022-09-28T00:31:02.192Z,99682.53
2022-09-28T00:36:49.328Z,99684.84
2022-09-28T00:42:38.070Z,99684.00
2022-09-28T00:48:29.403Z,99689.91
2022-09-28T00:54:17.160Z,99669.91
2022-09-28T01:00:05.833Z,99678.38
2022-09-28T01:05:54.038Z,99679.38
2022-09-28T01:11:42.378Z,99685.09
2022-09-28T01:17:44.863Z,99683.31
2022-09-28T01:23:57.136Z,99688.28
2022-09-28T01:29:50.088Z,99687.59
2022-09-28T01:35:45.814Z,99681.38
2022-09-28T01:41:36.728Z,99672.06
2022-09-28T01:47:26.408Z,99671.41
2022-09-28T01:53:24.131Z,99670.22
2022-09-28T01:59:20.404Z,99670.47
2022-09-28T02:05:12.124Z,99664.81
2022-09-28T02:11:06.056Z,99672.94
2022-09-28T02:16:54.770Z,99672.94
2022-09-28T02:22:53.141Z,99682.16
2022-09-28T02:28:40.133Z,99681.09
2022-09-28T02:34:27.256Z,99688.22
2022-09-28T02:40:23.472Z,99676.03
2022-09-28T02:46:36.943Z,99683.63
2022-09-28T02:53:02.813Z,99687.53
2022-09-28T02:59:15.005Z,99692.97
2022-09-28T03:05:10.957Z,99686.94
2022-09-28T03:11:19.426Z,99684.53
2022-09-28T03:17:09.662Z,99686.28
2022-09-28T03:23:22.682Z,99684.13
2022-09-28T03:29:04.573Z,99678.16
2022-09-28T03:34:51.927Z,99676.09
2022-09-28T03:40:38.874Z,99685.28
2022-09-28T03:46:28.962Z,99685.66
2022-09-28T03:52:20.673Z,99692.44
2022-09-28T03:58:07.377Z,99697.97
2022-09-28T04:03:57.939Z,99689.34
2022-09-28T04:09:45.324Z,99694.97
2022-09-28T04:15:33.167Z,99693.00
2022-09-28T04:21:20.807Z,99691.38
2022-09-28T04:27:32.174Z,99681.25
2022-09-28T04:33:23.142Z,99689.16
2022-09-28T04:39:14.445Z,99694.81
2022-09-28T04:45:04.902Z,99697.84
2022-09-28T04:50:56.811Z,99691.25
2022-09-28T04:56:43.691Z,99705.75
2022-09-28T05:02:30.699Z,99702.94
2022-09-28T05:08:23.596Z,99709.41
2022-09-28T05:14:21.687Z,99710.19
2022-09-28T05:20:09.192Z,99705.19
2022-09-28T05:25:56.131Z,99704.19
2022-09-28T05:31:48.439Z,99695.81
2022-09-28T05:37:53.164Z,99711.41
2022-09-28T05:43:41.176Z,99714.03
2022-09-28T05:49:29.245Z,99711.38
2022-09-28T05:55:23.702Z,99719.03
2022-09-28T06:01:10.481Z,99726.34
2022-09-28T06:06:57.853Z,99740.84
2022-09-28T06:12:50.001Z,99725.78
2022-09-28T06:19:11.757Z,99730.56
2022-09-28T06:25:43.361Z,99739.97
2022-09-28T06:31:32.753Z,99751.44
2022-09-28T06:37:19.675Z,99764.25
2022-09-28T06:43:10.698Z,99758.75
2022-09-28T06:57:10.499Z,99767.53
2022-09-28T07:02:57.936Z,99766.31
2022-09-28T07:09:31.568Z,99770.72
2022-09-28T07:15:40.280Z,99777.81
2022-09-28T07:21:31.198Z,99767.44
2022-09-28T07:27:28.739Z,99780.09
2022-09-28T07:33:34.574Z,99769.72
2022-09-28T07:47:02.859Z,99730.44
2022-09-28T07:53:17.533Z,99733.31
2022-09-28T07:59:17.727Z,99736.41
2022-09-28T08:05:36.778Z,99735.06
2022-09-28T08:11:23.768Z,99733.66
2022-09-28T08:17:29.369Z,99734.47
2022-09-28T08:23:20.700Z,99720.75
2022-09-28T08:29:08.302Z,99736.09
2022-09-28T08:35:30.199Z,99738.22
2022-09-28T08:41:55.741Z,99738.59
2022-09-28T08:55:20.055Z,99748.03
2022-09-28T09:01:22.392Z,99748.22
2022-09-28T09:14:26.394Z,99768.84
2022-09-28T09:20:53.063Z,99766.81
2022-09-28T09:28:04.353Z,99769.22
2022-09-28T09:34:14.051Z,99779.81
2022-09-28T09:41:03.179Z,99766.34
2022-09-28T10:53:46.758Z,99691.97
2022-09-28T10:59:42.693Z,99688.47
2022-09-28T11:18:53.889Z,99700.53
2022-09-28T11:24:57.897Z,99692.59
2022-09-28T11:30:51.622Z,99711.31
2022-09-28T11:36:47.947Z,99696.44
2022-09-28T11:43:10.072Z,99708.16
2022-09-28T11:49:07.192Z,99705.59
2022-09-28T11:55:18.958Z,99714.63
2022-09-28T12:01:19.071Z,99708.97
2022-09-28T12:07:57.123Z,99713.50
2022-09-28T12:14:21.851Z,99708.91
2022-09-28T12:20:25.944Z,99711.91
2022-09-28T12:26:28.340Z,99723.44
2022-09-28T12:32:26.137Z,99704.00
2022-09-28T13:28:01.317Z,99663.31
2022-09-28T13:33:50.409Z,99666.69
2022-09-28T13:39:44.234Z,99654.56
2022-09-28T13:45:54.461Z,99653.72
2022-09-28T13:52:26.452Z,99645.34
2022-09-28T13:58:35.841Z,99645.56
2022-09-28T14:04:59.281Z,99650.69
2022-09-28T14:11:02.439Z,99640.91
2022-09-28T14:16:58.951Z,99648.13
2022-09-28T14:23:13.755Z,99636.25
2022-09-28T14:29:27.869Z,99641.59
2022-09-28T14:35:39.145Z,99646.25
2022-09-28T14:41:45.261Z,99644.25
2022-09-28T14:48:09.071Z,99640.63
2022-09-28T14:54:11.626Z,99651.03
2022-09-28T14:59:59.796Z,99643.47
2022-09-28T15:05:57.369Z,99658.03
2022-09-28T15:11:44.716Z,99651.94
2022-09-28T15:18:17.009Z,99639.81
2022-09-28T15:24:52.573Z,99638.50
2022-09-28T15:57:36.117Z,99634.25
2022-09-28T16:03:28.824Z,99626.22
2022-09-28T16:09:31.769Z,99627.31
2022-09-28T16:15:32.653Z,99627.03
2022-09-28T16:21:47.070Z,99621.97
2022-09-28T16:27:43.384Z,99625.59
2022-09-28T16:33:43.796Z,99621.19
2022-09-28T16:39:30.723Z,99632.22
2022-09-28T16:45:20.577Z,99616.75
2022-09-28T16:51:25.790Z,99621.88
2022-09-28T16:57:17.092Z,99626.69
2022-09-28T17:03:13.455Z,99629.56
2022-09-28T17:09:27.484Z,99641.56
2022-09-28T17:15:16.551Z,99637.44
2022-09-28T17:21:06.198Z,99635.03
2022-09-28T17:26:57.432Z,99643.47
2022-09-28T17:32:47.644Z,99644.41
2022-09-28T17:38:49.334Z,99648.53
2022-09-28T17:44:36.459Z,99644.50
2022-09-28T17:50:29.732Z,99646.28
2022-09-28T17:56:16.537Z,99654.66
2022-09-28T18:02:03.526Z,99654.59
2022-09-28T18:07:51.946Z,99651.34
2022-09-28T18:13:39.288Z,99644.47
2022-09-28T18:19:32.024Z,99653.16
2022-09-28T18:25:24.336Z,99655.38
2022-09-28T18:31:16.979Z,99656.50
2022-09-28T18:37:07.063Z,99666.84
2022-09-28T18:42:53.843Z,99676.38
2022-09-28T18:48:41.172Z,99668.28
2022-09-28T18:54:28.099Z,99672.03
2022-09-28T19:00:15.279Z,99669.25
2022-09-28T19:06:02.502Z,99662.19
2022-09-28T19:11:50.121Z,99662.00
2022-09-28T19:17:37.138Z,99678.22
2022-09-28T19:23:26.727Z,99678.81
2022-09-28T19:29:14.781Z,99688.16
2022-09-28T19:35:03.446Z,99669.00
2022-09-28T19:40:50.296Z,99674.31
2022-09-28T19:46:40.839Z,99677.41
2022-09-28T19:52:29.578Z,99666.00
2022-09-28T19:58:16.412Z,99681.97
2022-09-28T20:04:03.517Z,99686.78
2022-09-28T20:09:51.681Z,99686.75
2022-09-28T20:15:38.689Z,99692.47
2022-09-28T20:21:28.917Z,99690.28
2022-09-28T20:27:29.677Z,99687.75
2022-09-28T20:33:28.797Z,99695.50
2022-09-28T20:39:19.122Z,99698.44
2022-09-28T20:45:06.235Z,99696.53
2022-09-28T20:51:13.958Z,99696.97
2022-09-28T20:57:03.676Z,99702.78
2022-09-28T21:02:54.733Z,99702.38
2022-09-28T21:08:46.231Z,99695.13
2022-09-28T21:14:33.277Z,99704.69
2022-09-28T21:20:27.694Z,99710.88
2022-09-28T21:26:27.724Z,99710.19
2022-09-28T21:32:14.656Z,99708.88
2022-09-28T21:38:03.534Z,99714.00
2022-09-28T21:43:52.466Z,99718.97
2022-09-28T21:49:39.132Z,99713.28
2022-09-28T21:55:25.883Z,99712.78
2022-09-28T22:01:16.602Z,99719.97
2022-09-28T22:07:03.539Z,99713.13
2022-09-28T22:12:51.814Z,99721.06
2022-09-28T22:18:42.721Z,99725.28
2022-09-28T22:24:29.873Z,99725.84
2022-09-28T22:30:20.280Z,99730.84
2022-09-28T22:36:07.957Z,99725.84
2022-09-28T22:41:54.859Z,99726.91
2022-09-28T22:47:43.936Z,99728.66
2022-09-28T22:53:31.251Z,99730.63
2022-09-28T22:59:26.404Z,99727.91
2022-09-28T23:05:17.112Z,99715.25
2022-09-28T23:11:07.898Z,99721.66
2022-09-28T23:16:57.942Z,99722.19
2022-09-28T23:22:53.959Z,99723.56
2022-09-28T23:28:43.733Z,99726.19
2022-09-28T23:34:33.753Z,99714.72
2022-09-28T23:40:22.022Z,99713.03
2022-09-28T23:46:09.231Z,99720.16
2022-09-28T23:51:56.448Z,99702.59
2022-09-28T23:57:46.718Z,99710.94
